Latest Weather Observations for Forbes

IDN60801

Issued at 10:33 pm EDT Thursday 5 March 2015 (issued every 30 minutes, with the page automatically refreshed every 10 minutes)

About weather observations | Map of weather stations | Latest weather observations for NSW | Other Formats
Station Details ID: 065103 Name: FORBES AIRPORT AWS Lat: -33.36 Lon: 147.92 Height: 230.4 m
Data from the previous 72 hours. | See also: Recent months at Forbes
Date/Time
EDT
Temp
°C
App
Temp
°C
Dew
Point
Rel
Hum
%
Delta-T
°C
Wind Press
QNH
hPa
Press
MSL
hPa
Rain
since 9 am
mm
Dir
 
Spd
km/h
Gust
km/h
Spd
kts
Gust
kts
05/10:30pm 16.7 11.9 -2.4 27 7.9 SW 13 22 7 12 1014.4 1013.5 0.0
05/10:00pm 17.6 11.7 -2.6 25 8.4 SW 19 24 10 13 1014.4 1013.5 0.0
05/09:30pm 18.6 12.0 -2.9 23 8.9 SSW 22 30 12 16 1013.9 1012.9 0.0
05/09:00pm 18.6 12.5 -3.5 22 9.1 SSW 19 26 10 14 1013.7 1012.7 0.0
05/08:30pm 19.4 13.1 -4.1 20 9.6 SSW 20 30 11 16 1013.2 1012.3 0.0
05/08:00pm 20.3 13.2 -4.0 19 10.1 SW 24 33 13 18 1012.7 1011.8 0.0
05/07:30pm 20.8 14.5 -3.6 19 10.2 SW 20 30 11 16 1012.6 1011.7 0.0
05/07:00pm 22.0 13.6 -5.8 15 11.3 SSW 30 41 16 22 1012.5 1011.6 0.0
05/06:30pm 22.9 15.1 -4.2 16 11.5 SW 28 39 15 21 1012.1 1011.2 0.0
05/06:00pm 23.4 15.1 -4.7 15 11.8 SSW 30 43 16 23 1011.7 1010.8 0.0
05/05:30pm 23.7 15.5 -4.4 15 11.9 SW 30 44 16 24 1011.7 1010.8 0.0
05/05:00pm 23.9 15.1 -4.3 15 12.0 SSW 33 50 18 27 1011.6 1010.7 0.0
05/04:30pm 24.5 15.7 -5.7 13 12.6 SSW 32 48 17 26 1011.6 1010.7 0.0
05/04:16pm 24.3 15.3 -5.8 13 12.5 SSW 33 52 18 28 1011.8 1010.9 0.0
05/04:00pm 24.1 14.7 -6.0 13 12.4 SSW 35 46 19 25 1012.1 1011.2 0.0
05/03:38pm 23.9 15.0 -7.2 12 12.5 SW 32 50 17 27 1012.3 1011.4 0.0
05/03:30pm 23.8 14.7 -7.3 12 12.5 SW 33 50 18 27 1012.4 1011.5 0.0
05/03:00pm 24.2 15.7 -7.0 12 12.7 SW 30 48 16 26 1012.5 1011.6 0.0
05/02:30pm 23.0 14.6 -2.6 18 11.2 SW 32 54 17 29 1012.6 1011.7 0.0
05/02:16pm 23.8 15.7 0.8 22 10.8 SW 33 50 18 27 1012.6 1011.7 0.0
05/02:00pm 23.4 16.0 1.7 24 10.3 SSW 30 44 16 24 1012.5 1011.6 0.0
05/01:30pm 22.8 15.9 4.8 31 9.0 SW 30 41 16 22 1012.8 1011.9 0.0
05/01:00pm 22.0 14.4 5.8 35 8.2 SW 35 50 19 27 1013.2 1012.3 0.0
05/12:40pm 22.1 15.9 6.3 36 8.1 SW 28 46 15 25 1013.7 1012.7 0.0
05/12:30pm 21.8 14.6 6.1 36 8.0 SW 33 46 18 25 1013.9 1012.9 0.0
05/12:00pm 20.8 14.0 7.8 43 6.8 SSW 33 50 18 27 1014.2 1013.3 0.0
05/11:30am 21.3 14.4 8.9 45 6.6 SW 35 56 19 30 1014.3 1013.4 0.0
05/11:29am 20.9 14.3 8.5 45 6.6 SW 33 56 18 30 1014.3 1013.4 0.0
05/11:00am 21.9 15.7 9.4 45 6.8 SSW 32 44 17 24 1014.1 1013.2 0.0
05/10:30am 20.5 14.2 9.1 48 6.1 SW 32 46 17 25 1014.0 1013.0 0.0
05/10:00am 19.4 12.5 8.7 50 5.6 SW 35 48 19 26 1014.0 1013.0 0.0
05/09:36am 19.1 12.5 8.4 50 5.6 SSW 33 52 18 28 1014.0 1013.0 0.0
05/09:30am 19.3 12.9 8.6 50 5.6 SW 32 46 17 25 1014.0 1013.0 0.0
05/09:17am 18.8 12.8 8.5 51 5.4 SW 30 48 16 26 1013.9 1012.9 0.0
05/09:00am 18.7 12.8 8.9 53 5.2 SW 30 46 16 25 1013.8 1012.8 0.0
05/08:39am 18.1 12.4 8.4 53 5.1 SW 28 46 15 25 1013.2 1012.3 0.0
05/08:30am 18.0 12.4 8.6 54 4.9 SW 28 39 15 21 1012.9 1012.0 0.0
05/08:00am 17.5 12.5 8.1 54 4.8 SW 24 37 13 20 1012.8 1011.9 0.0
05/07:30am 17.2 12.4 7.3 52 5.0 SW 22 32 12 17 1012.2 1011.3 0.0
05/07:00am 16.4 12.4 4.8 46 5.6 SW 15 24 8 13 1011.7 1010.8 0.0
05/06:30am 16.5 12.4 2.2 38 6.5 SW 13 19 7 10 1011.5 1010.6 0.0
05/06:00am 17.0 12.4 1.4 35 7.0 SW 15 20 8 11 1011.3 1010.4 0.0
05/05:30am 17.8 13.2 1.3 33 7.4 SW 15 19 8 10 1010.9 1010.0 0.0
05/05:00am 18.1 13.8 1.2 32 7.6 SW 13 19 7 10 1010.6 1009.7 0.0
05/04:30am 18.2 13.8 0.4 30 7.9 SW 13 19 7 10 1010.3 1009.4 0.0
05/04:00am 19.1 14.4 0.7 29 8.3 SW 15 19 8 10 1010.2 1009.2 0.0
05/03:30am 20.1 15.0 0.5 27 8.9 SW 17 22 9 12 1010.2 1009.2 0.0
05/03:00am 20.3 15.2 0.7 27 8.9 SW 17 24 9 13 1010.2 1009.2 0.0
05/02:30am 21.3 15.7 1.0 26 9.4 SW 20 28 11 15 1010.5 1009.6 0.0
05/02:00am 21.1 16.4 0.9 26 9.3 SW 15 20 8 11 1010.6 1009.7 0.0
05/01:30am 20.3 16.4 1.2 28 8.8 SW 11 17 6 9 1010.7 1009.8 0.0
05/01:00am 21.4 17.5 1.1 26 9.4 SW 11 15 6 8 1010.8 1009.9 0.0
05/12:30am 22.6 17.5 1.0 24 10.1 SW 17 20 9 11 1010.8 1009.9 0.0
05/12:00am 22.3 18.0 1.3 25 9.8 SW 13 17 7 9 1010.8 1009.9 0.0
 
Date/Time
EDT
Temp
°C
App
Temp
°C
Dew
Point
Rel
Hum
%
Delta-T
°C
Wind Press
QNH
hPa
Press
MSL
hPa
Rain
since 9 am
mm
Dir
 
Spd
km/h
Gust
km/h
Spd
kts
Gust
kts
04/11:30pm 23.9 18.9 1.5 23 10.6 SW 17 22 9 12 1011.0 1010.1 0.0
04/11:00pm 24.9 19.4 1.7 22 11.1 SW 20 28 11 15 1011.1 1010.2 0.0
04/10:30pm 25.0 20.2 2.4 23 11.0 SW 17 24 9 13 1011.2 1010.3 0.0
04/10:00pm 25.6 20.9 2.9 23 11.2 SW 17 24 9 13 1011.2 1010.3 0.0
04/09:30pm 26.6 21.9 3.2 22 11.7 SSW 17 24 9 13 1011.0 1010.1 0.0
04/09:00pm 27.1 22.5 3.6 22 11.9 SSW 17 20 9 11 1010.6 1009.7 0.0
04/08:30pm 28.1 23.1 3.7 21 12.4 SW 19 22 10 12 1010.2 1009.2 0.0
04/08:00pm 28.1 23.9 3.7 21 12.4 SW 15 19 8 10 1009.9 1008.9 0.0
04/07:30pm 29.6 25.6 2.8 18 13.5 SW 13 19 7 10 1009.7 1008.7 0.0
04/07:00pm 31.5 26.7 2.7 16 14.7 SW 17 24 9 13 1009.5 1008.5 0.0
04/06:30pm 32.5 27.3 2.5 15 15.3 WSW 19 26 10 14 1009.5 1008.5 0.0
04/06:00pm 33.4 28.7 3.3 15 15.7 SW 17 28 9 15 1009.4 1008.4 0.0
04/05:30pm 32.6 28.0 1.7 14 15.6 SW 15 22 8 12 1009.5 1008.5 0.0
04/05:00pm 33.4 28.0 2.3 14 16.0 WSW 20 32 11 17 1009.5 1008.5 0.0
04/04:30pm 33.1 28.0 3.0 15 15.6 SW 19 39 10 21 1009.6 1008.6 0.0
04/04:00pm 33.1 28.8 3.0 15 15.6 WSW 15 26 8 14 1010.2 1009.2 0.0
04/03:30pm 33.2 29.0 4.0 16 15.4 SW 15 26 8 14 1010.5 1009.6 0.0
04/03:00pm 32.9 27.9 3.8 16 15.3 WSW 19 28 10 15 1010.9 1010.0 0.0
04/02:30pm 32.5 27.6 4.3 17 14.9 SSW 19 33 10 18 1011.2 1010.3 0.0
04/02:00pm 32.6 27.9 5.2 18 14.7 SW 19 24 10 13 1011.7 1010.8 0.0
04/01:30pm 31.1 26.7 4.8 19 13.9 W 17 32 9 17 1011.8 1010.9 0.0
04/01:00pm 31.0 26.4 3.9 18 14.1 SW 17 26 9 14 1012.4 1011.5 0.0
04/12:30pm 31.2 27.4 5.6 20 13.7 S 15 24 8 13 1012.6 1011.7 0.0
04/12:00pm 30.5 25.6 5.0 20 13.4 SSW 20 28 11 15 1013.0 1012.1 0.0
04/11:30am 29.9 25.1 4.5 20 13.2 SSW 19 32 10 17 1013.5 1012.5 0.0
04/11:00am 29.5 25.8 6.2 23 12.5 S 15 24 8 13 1013.9 1012.9 0.0
04/10:30am 28.6 24.2 7.2 26 11.6 SSW 20 32 11 17 1014.2 1013.3 0.0
04/10:00am 26.7 25.2 10.4 36 9.2 SSE 9 13 5 7 1014.0 1013.0 0.0
04/09:30am 24.7 23.7 10.9 42 7.8 SE 7 11 4 6 1014.0 1013.0 0.0
04/09:00am 22.4 21.1 11.2 49 6.3 S 9 13 5 7 1013.9 1012.9 0.0
04/08:30am 20.1 19.6 7.8 45 6.4 CALM 0 0 0 0 1013.9 1012.9 0.0
04/08:00am 19.8 19.2 7.2 44 6.5 CALM 0 0 0 0 1013.6 1012.6 0.0
04/07:30am 17.3 15.6 7.6 53 4.9 SSE 6 7 3 4 1013.0 1012.1 0.0
04/07:00am 17.3 15.4 6.5 49 5.4 SE 6 7 3 4 1012.6 1011.7 0.0
04/06:30am 18.3 15.7 6.2 45 6.0 S 9 11 5 6 1012.1 1011.2 0.0
04/06:00am 19.3 16.7 6.1 42 6.6 S 9 11 5 6 1011.8 1010.9 0.0
04/05:30am 20.1 15.9 5.7 39 7.2 SSW 17 19 9 10 1011.5 1010.6 0.0
04/05:00am 20.6 16.4 5.8 38 7.5 SSW 17 20 9 11 1011.4 1010.5 0.0
04/04:30am 20.7 16.5 5.5 37 7.6 SSW 17 20 9 11 1011.5 1010.6 0.0
04/04:00am 21.5 17.7 5.8 36 8.0 SSW 15 19 8 10 1011.8 1010.9 0.0
04/03:30am 22.0 17.9 6.3 36 8.0 SSW 17 20 9 11 1011.8 1010.9 0.0
04/03:00am 22.4 18.7 7.8 39 7.7 SSW 17 22 9 12 1012.0 1011.1 0.0
04/02:30am 20.5 18.0 9.7 50 5.8 SSW 13 15 7 8 1012.3 1011.4 0.0
04/02:00am 20.2 18.3 10.6 54 5.3 SW 11 13 6 7 1012.4 1011.5 0.0
04/01:30am 19.4 18.2 10.4 56 4.9 SW 7 9 4 5 1012.5 1011.6 0.0
04/01:00am 19.1 18.2 9.3 53 5.2 SSE 4 9 2 5 1012.4 1011.5 0.0
04/12:30am 21.1 21.1 9.7 48 6.2 CALM 0 0 0 0 1012.4 1011.5 0.0
04/12:00am 22.2 20.8 9.4 44 7.0 ESE 7 7 4 4 1012.4 1011.5 0.0
 
Date/Time
EDT
Temp
°C
App
Temp
°C
Dew
Point
Rel
Hum
%
Delta-T
°C
Wind Press
QNH
hPa
Press
MSL
hPa
Rain
since 9 am
mm
Dir
 
Spd
km/h
Gust
km/h
Spd
kts
Gust
kts
03/11:30pm 23.8 22.4 9.4 40 7.9 SSE 7 9 4 5 1012.5 1011.6 0.0
03/11:00pm 24.7 22.4 9.0 37 8.6 SSE 11 11 6 6 1012.4 1011.5 0.0
03/10:30pm 26.0 23.3 8.9 34 9.4 S 13 15 7 8 1012.4 1011.5 0.0
03/10:00pm 26.5 23.7 8.5 32 9.9 S 13 17 7 9 1012.3 1011.4 0.0
03/09:30pm 26.8 23.7 7.3 29 10.5 S 13 15 7 8 1012.2 1011.3 0.0
03/09:00pm 27.6 24.4 6.9 27 11.1 SSW 13 17 7 9 1011.9 1011.0 0.0
03/08:30pm 28.4 25.3 8.7 29 10.9 SSW 15 17 8 9 1011.6 1010.7 0.0
03/08:00pm 29.5 26.3 10.1 30 11.1 SSW 17 20 9 11 1011.2 1010.3 0.0
03/07:30pm 30.9 27.0 10.8 29 11.7 SSW 22 30 12 16 1010.9 1010.0 0.0
03/07:00pm 31.9 27.7 11.1 28 12.2 SSW 24 33 13 18 1010.7 1009.8 0.0
03/06:30pm 33.5 30.0 10.8 25 13.3 SW 20 30 11 16 1010.5 1009.6 0.0
03/06:00pm 33.7 30.9 11.5 26 13.2 SW 17 22 9 12 1010.4 1009.5 0.0
03/05:30pm 33.4 30.6 11.3 26 13.1 SW 17 26 9 14 1010.4 1009.5 0.0
03/05:00pm 34.0 31.5 13.5 29 12.6 SW 19 28 10 15 1010.4 1009.5 0.0
03/04:30pm 34.2 31.5 14.7 31 12.2 SW 22 30 12 16 1010.4 1009.5 0.0
03/04:00pm 33.6 31.1 14.1 30 12.0 WSW 20 30 11 16 1010.6 1009.7 0.0
03/03:30pm 33.9 31.9 14.9 32 11.9 W 19 28 10 15 1011.0 1010.1 0.0
03/03:00pm 33.0 32.2 15.0 33 11.2 WSW 13 24 7 13 1011.4 1010.5 0.0
03/02:30pm 33.1 31.5 15.1 33 11.2 WSW 17 26 9 14 1011.8 1010.9 0.0
03/02:00pm 34.4 33.3 16.3 34 11.6 WNW 17 32 9 17 1012.1 1011.2 0.0
03/01:30pm 32.6 30.5 15.1 34 10.9 NNW 20 37 11 20 1012.4 1011.5 0.0
03/01:00pm 31.9 29.9 15.4 37 10.3 NW 20 35 11 19 1012.8 1011.9 0.0
03/12:30pm 31.5 28.9 15.9 39 9.8 NW 24 35 13 19 1013.6 1012.6 0.0
03/12:00pm 31.3 28.8 16.1 40 9.6 NNW 24 37 13 20 1014.0 1013.0 0.0
03/11:30am 29.5 27.5 15.6 43 8.6 NNW 20 35 11 19 1014.4 1013.5 0.0
03/11:00am 29.4 25.8 16.2 44 8.3 NNW 30 43 16 23 1014.4 1013.5 0.0
03/10:30am 27.9 23.6 15.5 46 7.7 NNW 32 43 17 23 1014.6 1013.7 0.0
03/10:00am 27.2 22.8 15.6 49 7.1 N 33 46 18 25 1014.5 1013.6 0.0
03/09:53am 27.3 22.9 15.6 48 7.2 N 33 46 18 25 1014.4 1013.5 0.0
03/09:30am 26.5 23.6 15.2 49 6.9 N 24 35 13 19 1014.6 1013.7 0.0
03/09:00am 23.6 21.3 14.0 55 5.7 NNE 19 24 10 13 1014.6 1013.7 0.0
03/08:30am 21.8 20.1 13.7 60 4.7 NE 15 30 8 16 1014.5 1013.6 0.0
03/08:00am 20.7 20.1 13.6 64 4.1 ENE 9 15 5 8 1014.4 1013.5 0.0
03/07:30am 18.0 17.6 13.1 73 2.8 SE 7 9 4 5 1014.4 1013.5 0.0
03/07:00am 16.3 17.0 12.1 76 2.3 CALM 0 0 0 0 1014.0 1013.0 0.0
03/06:30am 16.1 16.4 10.8 71 2.9 CALM 0 0 0 0 1013.8 1012.8 0.0
03/06:00am 17.2 17.9 12.3 73 2.7 CALM 0 0 0 0 1013.4 1012.4 0.0
03/05:30am 17.7 17.5 11.9 69 3.2 NE 4 7 2 4 1012.9 1012.0 0.0
03/05:00am 18.5 18.3 12.9 70 3.2 ENE 6 7 3 4 1012.8 1011.9 0.0
03/04:30am 18.5 17.8 13.1 71 3.1 E 9 11 5 6 1012.7 1011.8 0.0
03/04:00am 18.6 17.8 13.0 70 3.2 E 9 11 5 6 1012.6 1011.7 0.0
03/03:30am 19.0 18.1 12.7 67 3.6 NE 9 11 5 6 1012.7 1011.8 0.0
03/03:00am 19.4 18.2 12.9 66 3.7 NE 11 11 6 6 1012.5 1011.6 0.0
03/02:30am 19.4 18.2 12.9 66 3.7 NE 11 13 6 7 1012.3 1011.4 0.0
03/02:00am 19.8 19.3 12.8 64 4.0 ENE 7 11 4 6 1012.6 1011.7 0.0
03/01:30am 21.3 19.5 13.2 60 4.7 ENE 15 20 8 11 1012.9 1012.0 0.0
03/01:00am 21.8 20.0 13.4 59 4.9 ENE 15 19 8 10 1013.0 1012.1 0.0
03/12:30am 22.0 21.0 13.4 58 5.0 E 11 15 6 8 1012.9 1012.0 0.0
03/12:00am 23.2 20.8 13.7 55 5.6 NNE 19 24 10 13 1012.7 1011.8 0.0
 
Date/Time
EDT
Temp
°C
App
Temp
°C
Dew
Point
Rel
Hum
%
Delta-T
°C
Wind Press
QNH
hPa
Press
MSL
hPa
Rain
since 9 am
mm
Dir
 
Spd
km/h
Gust
km/h
Spd
kts
Gust
kts
02/11:30pm 24.1 21.5 13.9 53 6.0 NNE 20 26 11 14 1012.6 1011.7 0.0
02/11:00pm 24.8 21.9 14.0 51 6.4 NNE 22 28 12 15 1012.8 1011.9 0.0

Other Formats:

Comma delimited format used in spreadsheet applications
http://www.bom.gov.au/fwo/IDN60801/IDN60801.94715.axf

JavaScript Object Notation format (JSON) in row-major order
http://www.bom.gov.au/fwo/IDN60801/IDN60801.94715.json